<?xml version='1.0' encoding='UTF-8'?>
<gpx version="1.1" creator="https://www.komoot.de" xmlns="http://www.topografix.com/GPX/1/1" xmlns:xsi="http://www.w3.org/2001/XMLSchema-instance" xsi:schemaLocation="http://www.topografix.com/GPX/1/1 http://www.topografix.com/GPX/1/1/gpx.xsd">
  <metadata>
    <name>Haren_100k_Draft_1of3</name>
    <author>
      <link href="https://www.komoot.de">
        <text>komoot</text>
        <type>text/html</type>
      </link>
    </author>
  </metadata>
  <trk>
    <name>Haren_100k_Draft_1of3</name>
    <trkseg>
      <trkpt lat="52.789813" lon="7.230096">
        <ele>10.817321</ele>
        <time>2020-12-03T18:08:50.181Z</time>
      </trkpt>
      <trkpt lat="52.789766" lon="7.229860">
        <ele>10.817321</ele>
        <time>2020-12-03T18:08:53.151Z</time>
      </trkpt>
      <trkpt lat="52.790201" lon="7.229621">
        <ele>10.817321</ele>
        <time>2020-12-03T18:09:01.887Z</time>
      </trkpt>
      <trkpt lat="52.790222" lon="7.229610">
        <ele>10.817321</ele>
        <time>2020-12-03T18:09:02.285Z</time>
      </trkpt>
      <trkpt lat="52.790275" lon="7.229593">
        <ele>10.817321</ele>
        <time>2020-12-03T18:09:03.271Z</time>
      </trkpt>
      <trkpt lat="52.790262" lon="7.229558">
        <ele>10.817321</ele>
        <time>2020-12-03T18:09:03.615Z</time>
      </trkpt>
      <trkpt lat="52.790193" lon="7.229371">
        <ele>10.817321</ele>
        <time>2020-12-03T18:09:05.434Z</time>
      </trkpt>
      <trkpt lat="52.790177" lon="7.229326">
        <ele>10.817321</ele>
        <time>2020-12-03T18:09:05.876Z</time>
      </trkpt>
      <trkpt lat="52.790257" lon="7.229242">
        <ele>10.782969</ele>
        <time>2020-12-03T18:09:07.612Z</time>
      </trkpt>
      <trkpt lat="52.790293" lon="7.229253">
        <ele>10.764738</ele>
        <time>2020-12-03T18:09:08.277Z</time>
      </trkpt>
      <trkpt lat="52.790298" lon="7.229207">
        <ele>10.750664</ele>
        <time>2020-12-03T18:09:08.639Z</time>
      </trkpt>
      <trkpt lat="52.790361" lon="7.229006">
        <ele>10.682486</ele>
        <time>2020-12-03T18:09:10.491Z</time>
      </trkpt>
      <trkpt lat="52.790696" lon="7.228683">
        <ele>10.489377</ele>
        <time>2020-12-03T18:09:15.580Z</time>
      </trkpt>
      <trkpt lat="52.791826" lon="7.227598">
        <ele>9.882943</ele>
        <time>2020-12-03T18:09:32.667Z</time>
      </trkpt>
      <trkpt lat="52.792649" lon="7.226842">
        <ele>9.664270</ele>
        <time>2020-12-03T18:09:45.731Z</time>
      </trkpt>
      <trkpt lat="52.793553" lon="7.225880">
        <ele>9.477199</ele>
        <time>2020-12-03T18:10:01.856Z</time>
      </trkpt>
      <trkpt lat="52.794053" lon="7.225195">
        <ele>9.432165</ele>
        <time>2020-12-03T18:10:11.443Z</time>
      </trkpt>
      <trkpt lat="52.794428" lon="7.224595">
        <ele>9.395975</ele>
        <time>2020-12-03T18:10:18.925Z</time>
      </trkpt>
      <trkpt lat="52.794511" lon="7.224454">
        <ele>9.387723</ele>
        <time>2020-12-03T18:10:20.606Z</time>
      </trkpt>
      <trkpt lat="52.794973" lon="7.223662">
        <ele>9.352945</ele>
        <time>2020-12-03T18:10:30.063Z</time>
      </trkpt>
      <trkpt lat="52.795470" lon="7.222626">
        <ele>9.314291</ele>
        <time>2020-12-03T18:10:41.550Z</time>
      </trkpt>
      <trkpt lat="52.795942" lon="7.221330">
        <ele>9.446355</ele>
        <time>2020-12-03T18:10:55.724Z</time>
      </trkpt>
      <trkpt lat="52.796290" lon="7.220196">
        <ele>9.705787</ele>
        <time>2020-12-03T18:11:09.025Z</time>
      </trkpt>
      <trkpt lat="52.796930" lon="7.217902">
        <ele>9.803142</ele>
        <time>2020-12-03T18:11:32.958Z</time>
      </trkpt>
      <trkpt lat="52.797332" lon="7.216431">
        <ele>9.645637</ele>
        <time>2020-12-03T18:11:46.177Z</time>
      </trkpt>
      <trkpt lat="52.797473" lon="7.215906">
        <ele>9.454527</ele>
        <time>2020-12-03T18:11:50.595Z</time>
      </trkpt>
      <trkpt lat="52.797857" lon="7.214480">
        <ele>8.935209</ele>
        <time>2020-12-03T18:12:02.618Z</time>
      </trkpt>
      <trkpt lat="52.797938" lon="7.214194">
        <ele>8.830143</ele>
        <time>2020-12-03T18:12:05.204Z</time>
      </trkpt>
      <trkpt lat="52.797983" lon="7.214015">
        <ele>8.765652</ele>
        <time>2020-12-03T18:12:06.854Z</time>
      </trkpt>
      <trkpt lat="52.797993" lon="7.213976">
        <ele>8.751559</ele>
        <time>2020-12-03T18:12:07.229Z</time>
      </trkpt>
      <trkpt lat="52.798081" lon="7.213646">
        <ele>8.710038</ele>
        <time>2020-12-03T18:12:10.313Z</time>
      </trkpt>
      <trkpt lat="52.798277" lon="7.212937">
        <ele>8.659997</ele>
        <time>2020-12-03T18:12:17.137Z</time>
      </trkpt>
      <trkpt lat="52.798356" lon="7.212691">
        <ele>8.642118</ele>
        <time>2020-12-03T18:12:19.597Z</time>
      </trkpt>
      <trkpt lat="52.798525" lon="7.212206">
        <ele>8.606187</ele>
        <time>2020-12-03T18:12:24.544Z</time>
      </trkpt>
      <trkpt lat="52.798774" lon="7.211651">
        <ele>8.561826</ele>
        <time>2020-12-03T18:12:30.690Z</time>
      </trkpt>
      <trkpt lat="52.799407" lon="7.210619">
        <ele>8.581883</ele>
        <time>2020-12-03T18:12:44.205Z</time>
      </trkpt>
      <trkpt lat="52.800253" lon="7.209540">
        <ele>8.652839</ele>
        <time>2020-12-03T18:13:00.143Z</time>
      </trkpt>
      <trkpt lat="52.800359" lon="7.209403">
        <ele>8.678464</ele>
        <time>2020-12-03T18:13:02.141Z</time>
      </trkpt>
      <trkpt lat="52.801142" lon="7.208354">
        <ele>8.995772</ele>
        <time>2020-12-03T18:13:18.162Z</time>
      </trkpt>
      <trkpt lat="52.801115" lon="7.208268">
        <ele>9.014221</ele>
        <time>2020-12-03T18:13:19.391Z</time>
      </trkpt>
      <trkpt lat="52.801805" lon="7.207355">
        <ele>9.315181</ele>
        <time>2020-12-03T18:13:39.115Z</time>
      </trkpt>
      <trkpt lat="52.802611" lon="7.206348">
        <ele>9.738284</ele>
        <time>2020-12-03T18:14:01.748Z</time>
      </trkpt>
      <trkpt lat="52.803335" lon="7.205697">
        <ele>9.951696</ele>
        <time>2020-12-03T18:14:19.377Z</time>
      </trkpt>
      <trkpt lat="52.805184" lon="7.204224">
        <ele>9.723258</ele>
        <time>2020-12-03T18:14:59.392Z</time>
      </trkpt>
      <trkpt lat="52.805871" lon="7.203455">
        <ele>9.602822</ele>
        <time>2020-12-03T18:15:15.393Z</time>
      </trkpt>
      <trkpt lat="52.810448" lon="7.195294">
        <ele>9.796188</ele>
        <time>2020-12-03T18:17:33.079Z</time>
      </trkpt>
      <trkpt lat="52.812511" lon="7.192235">
        <ele>9.913790</ele>
        <time>2020-12-03T18:18:29.517Z</time>
      </trkpt>
      <trkpt lat="52.812565" lon="7.192019">
        <ele>9.927222</ele>
        <time>2020-12-03T18:18:32.527Z</time>
      </trkpt>
      <trkpt lat="52.812751" lon="7.191874">
        <ele>9.946771</ele>
        <time>2020-12-03T18:18:36.679Z</time>
      </trkpt>
      <trkpt lat="52.813033" lon="7.191529">
        <ele>9.980117</ele>
        <time>2020-12-03T18:18:43.926Z</time>
      </trkpt>
      <trkpt lat="52.813190" lon="7.191346">
        <ele>9.998376</ele>
        <time>2020-12-03T18:18:48.042Z</time>
      </trkpt>
      <trkpt lat="52.813738" lon="7.190832">
        <ele>10.058268</ele>
        <time>2020-12-03T18:19:00.949Z</time>
      </trkpt>
      <trkpt lat="52.814492" lon="7.190357">
        <ele>10.064933</ele>
        <time>2020-12-03T18:19:17.520Z</time>
      </trkpt>
      <trkpt lat="52.814527" lon="7.190213">
        <ele>10.062379</ele>
        <time>2020-12-03T18:19:19.400Z</time>
      </trkpt>
      <trkpt lat="52.814897" lon="7.190163">
        <ele>10.052269</ele>
        <time>2020-12-03T18:19:26.784Z</time>
      </trkpt>
      <trkpt lat="52.815709" lon="7.189714">
        <ele>10.045527</ele>
        <time>2020-12-03T18:19:43.789Z</time>
      </trkpt>
      <trkpt lat="52.816438" lon="7.189285">
        <ele>10.159159</ele>
        <time>2020-12-03T18:19:59.331Z</time>
      </trkpt>
      <trkpt lat="52.821497" lon="7.186351">
        <ele>11.103520</ele>
        <time>2020-12-03T18:21:52.263Z</time>
      </trkpt>
      <trkpt lat="52.825528" lon="7.184011">
        <ele>11.974920</ele>
        <time>2020-12-03T18:23:22.588Z</time>
      </trkpt>
      <trkpt lat="52.825960" lon="7.183691">
        <ele>12.041254</ele>
        <time>2020-12-03T18:23:32.385Z</time>
      </trkpt>
      <trkpt lat="52.826690" lon="7.182891">
        <ele>12.089043</ele>
        <time>2020-12-03T18:23:50.287Z</time>
      </trkpt>
      <trkpt lat="52.827394" lon="7.181551">
        <ele>12.233686</ele>
        <time>2020-12-03T18:24:11.927Z</time>
      </trkpt>
      <trkpt lat="52.827579" lon="7.181082">
        <ele>12.339709</ele>
        <time>2020-12-03T18:24:19.054Z</time>
      </trkpt>
      <trkpt lat="52.827566" lon="7.180975">
        <ele>12.360368</ele>
        <time>2020-12-03T18:24:20.553Z</time>
      </trkpt>
      <trkpt lat="52.827597" lon="7.180890">
        <ele>12.379162</ele>
        <time>2020-12-03T18:24:21.877Z</time>
      </trkpt>
      <trkpt lat="52.827701" lon="7.181016">
        <ele>12.419541</ele>
        <time>2020-12-03T18:24:23.855Z</time>
      </trkpt>
      <trkpt lat="52.827828" lon="7.181114">
        <ele>12.463441</ele>
        <time>2020-12-03T18:24:26.272Z</time>
      </trkpt>
      <trkpt lat="52.827864" lon="7.181044">
        <ele>12.480841</ele>
        <time>2020-12-03T18:24:27.262Z</time>
      </trkpt>
      <trkpt lat="52.827908" lon="7.181090">
        <ele>12.497146</ele>
        <time>2020-12-03T18:24:28.351Z</time>
      </trkpt>
      <trkpt lat="52.827960" lon="7.181120">
        <ele>12.514398</ele>
        <time>2020-12-03T18:24:29.462Z</time>
      </trkpt>
      <trkpt lat="52.828119" lon="7.181204">
        <ele>12.566687</ele>
        <time>2020-12-03T18:24:33.194Z</time>
      </trkpt>
      <trkpt lat="52.828204" lon="7.181238">
        <ele>12.594083</ele>
        <time>2020-12-03T18:24:35.215Z</time>
      </trkpt>
      <trkpt lat="52.828626" lon="7.181365">
        <ele>12.736042</ele>
        <time>2020-12-03T18:24:44.562Z</time>
      </trkpt>
      <trkpt lat="52.828683" lon="7.181391">
        <ele>12.758520</ele>
        <time>2020-12-03T18:24:45.761Z</time>
      </trkpt>
      <trkpt lat="52.828757" lon="7.181018">
        <ele>12.848700</ele>
        <time>2020-12-03T18:24:49.931Z</time>
      </trkpt>
      <trkpt lat="52.828849" lon="7.180413">
        <ele>12.992003</ele>
        <time>2020-12-03T18:24:56.217Z</time>
      </trkpt>
      <trkpt lat="52.828853" lon="7.180096">
        <ele>13.064834</ele>
        <time>2020-12-03T18:24:59.301Z</time>
      </trkpt>
      <trkpt lat="52.828647" lon="7.179367">
        <ele>13.249696</ele>
        <time>2020-12-03T18:25:07.535Z</time>
      </trkpt>
      <trkpt lat="52.828609" lon="7.179021">
        <ele>13.330476</ele>
        <time>2020-12-03T18:25:10.941Z</time>
      </trkpt>
      <trkpt lat="52.828896" lon="7.177528">
        <ele>13.395026</ele>
        <time>2020-12-03T18:25:25.331Z</time>
      </trkpt>
      <trkpt lat="52.828930" lon="7.176873">
        <ele>13.403832</ele>
        <time>2020-12-03T18:25:31.055Z</time>
      </trkpt>
      <trkpt lat="52.829317" lon="7.174557">
        <ele>13.384303</ele>
        <time>2020-12-03T18:25:51.911Z</time>
      </trkpt>
      <trkpt lat="52.830843" lon="7.165852">
        <ele>13.217495</ele>
        <time>2020-12-03T18:27:13.210Z</time>
      </trkpt>
      <trkpt lat="52.830916" lon="7.165442">
        <ele>13.217507</ele>
        <time>2020-12-03T18:27:17.221Z</time>
      </trkpt>
      <trkpt lat="52.834228" lon="7.146564">
        <ele>12.067109</ele>
        <time>2020-12-03T18:30:08.635Z</time>
      </trkpt>
      <trkpt lat="52.837321" lon="7.128928">
        <ele>13.751596</ele>
        <time>2020-12-03T18:33:03.011Z</time>
      </trkpt>
      <trkpt lat="52.837877" lon="7.125741">
        <ele>12.664065</ele>
        <time>2020-12-03T18:33:28.276Z</time>
      </trkpt>
      <trkpt lat="52.838261" lon="7.123693">
        <ele>12.096677</ele>
        <time>2020-12-03T18:33:44.969Z</time>
      </trkpt>
      <trkpt lat="52.838342" lon="7.123262">
        <ele>12.104481</ele>
        <time>2020-12-03T18:33:48.862Z</time>
      </trkpt>
      <trkpt lat="52.839574" lon="7.119047">
        <ele>12.779215</ele>
        <time>2020-12-03T18:34:35.990Z</time>
      </trkpt>
      <trkpt lat="52.839740" lon="7.119046">
        <ele>12.735688</ele>
        <time>2020-12-03T18:34:38.396Z</time>
      </trkpt>
      <trkpt lat="52.839855" lon="7.119072">
        <ele>12.705254</ele>
        <time>2020-12-03T18:34:40.138Z</time>
      </trkpt>
      <trkpt lat="52.840341" lon="7.119239">
        <ele>12.575104</ele>
        <time>2020-12-03T18:34:47.116Z</time>
      </trkpt>
      <trkpt lat="52.840346" lon="7.116854">
        <ele>12.183776</ele>
        <time>2020-12-03T18:35:06.259Z</time>
      </trkpt>
      <trkpt lat="52.840404" lon="7.116143">
        <ele>12.056390</ele>
        <time>2020-12-03T18:35:12.113Z</time>
      </trkpt>
      <trkpt lat="52.841029" lon="7.113982">
        <ele>11.797161</ele>
        <time>2020-12-03T18:35:32.845Z</time>
      </trkpt>
      <trkpt lat="52.841426" lon="7.112604">
        <ele>11.826643</ele>
        <time>2020-12-03T18:35:46.832Z</time>
      </trkpt>
      <trkpt lat="52.843088" lon="7.106950">
        <ele>12.209615</ele>
        <time>2020-12-03T18:36:44.866Z</time>
      </trkpt>
      <trkpt lat="52.848444" lon="7.088729">
        <ele>13.821549</ele>
        <time>2020-12-03T18:39:53.861Z</time>
      </trkpt>
      <trkpt lat="52.848381" lon="7.088683">
        <ele>13.826896</ele>
        <time>2020-12-03T18:39:55.218Z</time>
      </trkpt>
      <trkpt lat="52.848189" lon="7.088540">
        <ele>13.843248</ele>
        <time>2020-12-03T18:39:59.487Z</time>
      </trkpt>
      <trkpt lat="52.848099" lon="7.088476">
        <ele>13.850856</ele>
        <time>2020-12-03T18:40:01.459Z</time>
      </trkpt>
      <trkpt lat="52.847979" lon="7.088866">
        <ele>13.827324</ele>
        <time>2020-12-03T18:40:05.271Z</time>
      </trkpt>
      <trkpt lat="52.847920" lon="7.088821">
        <ele>13.809339</ele>
        <time>2020-12-03T18:40:06.600Z</time>
      </trkpt>
      <trkpt lat="52.848117" lon="7.088170">
        <ele>13.687588</ele>
        <time>2020-12-03T18:40:15.139Z</time>
      </trkpt>
      <trkpt lat="52.848508" lon="7.087100">
        <ele>13.478477</ele>
        <time>2020-12-03T18:40:29.614Z</time>
      </trkpt>
      <trkpt lat="52.848946" lon="7.086280">
        <ele>13.293887</ele>
        <time>2020-12-03T18:40:41.755Z</time>
      </trkpt>
      <trkpt lat="52.849678" lon="7.085111">
        <ele>13.005939</ele>
        <time>2020-12-03T18:41:01.297Z</time>
      </trkpt>
      <trkpt lat="52.849789" lon="7.084837">
        <ele>12.949522</ele>
        <time>2020-12-03T18:41:05.241Z</time>
      </trkpt>
      <trkpt lat="52.849938" lon="7.084150">
        <ele>12.846749</ele>
        <time>2020-12-03T18:41:14.108Z</time>
      </trkpt>
      <trkpt lat="52.849906" lon="7.082198">
        <ele>12.760038</ele>
        <time>2020-12-03T18:41:37.864Z</time>
      </trkpt>
      <trkpt lat="52.849903" lon="7.082159">
        <ele>12.758292</ele>
        <time>2020-12-03T18:41:38.370Z</time>
      </trkpt>
      <trkpt lat="52.849877" lon="7.082148">
        <ele>12.756319</ele>
        <time>2020-12-03T18:41:38.923Z</time>
      </trkpt>
      <trkpt lat="52.849886" lon="7.082044">
        <ele>12.751654</ele>
        <time>2020-12-03T18:41:40.192Z</time>
      </trkpt>
      <trkpt lat="52.849876" lon="7.081873">
        <ele>12.744025</ele>
        <time>2020-12-03T18:41:42.227Z</time>
      </trkpt>
      <trkpt lat="52.849872" lon="7.081668">
        <ele>12.734917</ele>
        <time>2020-12-03T18:41:44.714Z</time>
      </trkpt>
      <trkpt lat="52.849874" lon="7.081516">
        <ele>12.728166</ele>
        <time>2020-12-03T18:41:46.582Z</time>
      </trkpt>
      <trkpt lat="52.849867" lon="7.081315">
        <ele>12.712261</ele>
        <time>2020-12-03T18:41:48.939Z</time>
      </trkpt>
      <trkpt lat="52.849940" lon="7.080030">
        <ele>12.521978</ele>
        <time>2020-12-03T18:42:04.254Z</time>
      </trkpt>
      <trkpt lat="52.850127" lon="7.078624">
        <ele>12.309725</ele>
        <time>2020-12-03T18:42:20.940Z</time>
      </trkpt>
      <trkpt lat="52.850113" lon="7.076796">
        <ele>12.052182</ele>
        <time>2020-12-03T18:42:42.203Z</time>
      </trkpt>
      <trkpt lat="52.850091" lon="7.076125">
        <ele>11.957997</ele>
        <time>2020-12-03T18:42:50.055Z</time>
      </trkpt>
      <trkpt lat="52.850033" lon="7.075867">
        <ele>11.919411</ele>
        <time>2020-12-03T18:42:53.333Z</time>
      </trkpt>
      <trkpt lat="52.847855" lon="7.070052">
        <ele>11.303230</ele>
        <time>2020-12-03T18:44:14.885Z</time>
      </trkpt>
      <trkpt lat="52.847810" lon="7.069607">
        <ele>11.263920</ele>
        <time>2020-12-03T18:44:20.203Z</time>
      </trkpt>
      <trkpt lat="52.847886" lon="7.069235">
        <ele>11.229706</ele>
        <time>2020-12-03T18:44:24.799Z</time>
      </trkpt>
      <trkpt lat="52.848008" lon="7.069053">
        <ele>11.206017</ele>
        <time>2020-12-03T18:44:28.072Z</time>
      </trkpt>
      <trkpt lat="52.848171" lon="7.068910">
        <ele>11.179406</ele>
        <time>2020-12-03T18:44:31.600Z</time>
      </trkpt>
      <trkpt lat="52.850840" lon="7.066670">
        <ele>11.097309</ele>
        <time>2020-12-03T18:45:31.716Z</time>
      </trkpt>
      <trkpt lat="52.851700" lon="7.065936">
        <ele>11.220439</ele>
        <time>2020-12-03T18:45:52.091Z</time>
      </trkpt>
      <trkpt lat="52.851730" lon="7.065680">
        <ele>11.240480</ele>
        <time>2020-12-03T18:45:55.497Z</time>
      </trkpt>
      <trkpt lat="52.851890" lon="7.065460">
        <ele>11.269559</ele>
        <time>2020-12-03T18:45:59.772Z</time>
      </trkpt>
      <trkpt lat="52.852163" lon="7.065258">
        <ele>11.316180</ele>
        <time>2020-12-03T18:46:06.072Z</time>
      </trkpt>
      <trkpt lat="52.852542" lon="7.064948">
        <ele>11.382087</ele>
        <time>2020-12-03T18:46:14.881Z</time>
      </trkpt>
      <trkpt lat="52.853040" lon="7.064510">
        <ele>11.470005</ele>
        <time>2020-12-03T18:46:26.766Z</time>
      </trkpt>
      <trkpt lat="52.853190" lon="7.064480">
        <ele>11.493562</ele>
        <time>2020-12-03T18:46:29.880Z</time>
      </trkpt>
      <trkpt lat="52.853320" lon="7.064540">
        <ele>11.514604</ele>
        <time>2020-12-03T18:46:32.729Z</time>
      </trkpt>
      <trkpt lat="52.853410" lon="7.064620">
        <ele>11.530530</ele>
        <time>2020-12-03T18:46:34.760Z</time>
      </trkpt>
      <trkpt lat="52.853670" lon="7.064500">
        <ele>11.545735</ele>
        <time>2020-12-03T18:46:40.234Z</time>
      </trkpt>
      <trkpt lat="52.854510" lon="7.064230">
        <ele>11.581793</ele>
        <time>2020-12-03T18:46:57.460Z</time>
      </trkpt>
      <trkpt lat="52.854698" lon="7.064160">
        <ele>11.589913</ele>
        <time>2020-12-03T18:47:01.522Z</time>
      </trkpt>
      <trkpt lat="52.854953" lon="7.063844">
        <ele>11.603334</ele>
        <time>2020-12-03T18:47:08.038Z</time>
      </trkpt>
      <trkpt lat="52.855200" lon="7.063538">
        <ele>11.614024</ele>
        <time>2020-12-03T18:47:14.380Z</time>
      </trkpt>
      <trkpt lat="52.855760" lon="7.063090">
        <ele>11.627519</ele>
        <time>2020-12-03T18:47:27.108Z</time>
      </trkpt>
      <trkpt lat="52.855911" lon="7.062976">
        <ele>11.631120</ele>
        <time>2020-12-03T18:47:30.571Z</time>
      </trkpt>
      <trkpt lat="52.859218" lon="7.060476">
        <ele>11.396217</ele>
        <time>2020-12-03T18:48:43.404Z</time>
      </trkpt>
      <trkpt lat="52.859417" lon="7.060268">
        <ele>11.357254</ele>
        <time>2020-12-03T18:48:47.979Z</time>
      </trkpt>
      <trkpt lat="52.859625" lon="7.059998">
        <ele>11.313497</ele>
        <time>2020-12-03T18:48:53.065Z</time>
      </trkpt>
      <trkpt lat="52.859678" lon="7.059850">
        <ele>11.296295</ele>
        <time>2020-12-03T18:48:55.112Z</time>
      </trkpt>
      <trkpt lat="52.859683" lon="7.059798">
        <ele>11.291031</ele>
        <time>2020-12-03T18:48:55.668Z</time>
      </trkpt>
      <trkpt lat="52.859683" lon="7.059746">
        <ele>11.285833</ele>
        <time>2020-12-03T18:48:56.834Z</time>
      </trkpt>
      <trkpt lat="52.859661" lon="7.059625">
        <ele>11.273200</ele>
        <time>2020-12-03T18:48:59.600Z</time>
      </trkpt>
      <trkpt lat="52.859627" lon="7.059238">
        <ele>11.237018</ele>
        <time>2020-12-03T18:49:08.134Z</time>
      </trkpt>
      <trkpt lat="52.859579" lon="7.059193">
        <ele>11.229234</ele>
        <time>2020-12-03T18:49:10.080Z</time>
      </trkpt>
      <trkpt lat="52.859579" lon="7.059193">
        <ele>11.229234</ele>
        <time>2020-12-03T18:49:10.097Z</time>
      </trkpt>
      <trkpt lat="52.859579" lon="7.059193">
        <ele>11.229234</ele>
        <time>2020-12-03T18:49:10.114Z</time>
      </trkpt>
      <trkpt lat="52.859627" lon="7.059238">
        <ele>11.221450</ele>
        <time>2020-12-03T18:49:12.092Z</time>
      </trkpt>
      <trkpt lat="52.859687" lon="7.059192">
        <ele>11.212119</ele>
        <time>2020-12-03T18:49:14.483Z</time>
      </trkpt>
      <trkpt lat="52.859879" lon="7.059116">
        <ele>11.184260</ele>
        <time>2020-12-03T18:49:21.555Z</time>
      </trkpt>
      <trkpt lat="52.859943" lon="7.059112">
        <ele>11.175222</ele>
        <time>2020-12-03T18:49:23.913Z</time>
      </trkpt>
      <trkpt lat="52.860057" lon="7.059045">
        <ele>11.158151</ele>
        <time>2020-12-03T18:49:25.578Z</time>
      </trkpt>
      <trkpt lat="52.860146" lon="7.059009">
        <ele>11.145221</ele>
        <time>2020-12-03T18:49:26.857Z</time>
      </trkpt>
      <trkpt lat="52.860215" lon="7.059006">
        <ele>11.135480</ele>
        <time>2020-12-03T18:49:27.804Z</time>
      </trkpt>
      <trkpt lat="52.860194" lon="7.058866">
        <ele>11.123189</ele>
        <time>2020-12-03T18:49:29.014Z</time>
      </trkpt>
      <trkpt lat="52.860116" lon="7.058591">
        <ele>11.097300</ele>
        <time>2020-12-03T18:49:31.648Z</time>
      </trkpt>
      <trkpt lat="52.858966" lon="7.055558">
        <ele>11.034407</ele>
        <time>2020-12-03T18:50:04.068Z</time>
      </trkpt>
      <trkpt lat="52.858867" lon="7.055293">
        <ele>11.038802</ele>
        <time>2020-12-03T18:50:06.935Z</time>
      </trkpt>
      <trkpt lat="52.858743" lon="7.054975">
        <ele>11.033546</ele>
        <time>2020-12-03T18:50:10.504Z</time>
      </trkpt>
      <trkpt lat="52.858278" lon="7.053756">
        <ele>10.952522</ele>
        <time>2020-12-03T18:50:22.993Z</time>
      </trkpt>
      <trkpt lat="52.858174" lon="7.053569">
        <ele>10.938236</ele>
        <time>2020-12-03T18:50:25.208Z</time>
      </trkpt>
      <trkpt lat="52.857888" lon="7.053289">
        <ele>10.907316</ele>
        <time>2020-12-03T18:50:29.945Z</time>
      </trkpt>
      <trkpt lat="52.857670" lon="7.053191">
        <ele>10.886293</ele>
        <time>2020-12-03T18:50:33.168Z</time>
      </trkpt>
      <trkpt lat="52.857561" lon="7.053164">
        <ele>10.876036</ele>
        <time>2020-12-03T18:50:34.833Z</time>
      </trkpt>
      <trkpt lat="52.857486" lon="7.053095">
        <ele>10.864415</ele>
        <time>2020-12-03T18:50:36.081Z</time>
      </trkpt>
      <trkpt lat="52.857341" lon="7.052958">
        <ele>10.840279</ele>
        <time>2020-12-03T18:50:38.434Z</time>
      </trkpt>
      <trkpt lat="52.857167" lon="7.052718">
        <ele>10.807540</ele>
        <time>2020-12-03T18:50:41.769Z</time>
      </trkpt>
      <trkpt lat="52.857055" lon="7.052444">
        <ele>10.778655</ele>
        <time>2020-12-03T18:50:44.615Z</time>
      </trkpt>
      <trkpt lat="52.856904" lon="7.052032">
        <ele>10.736581</ele>
        <time>2020-12-03T18:50:48.744Z</time>
      </trkpt>
      <trkpt lat="52.856606" lon="7.051219">
        <ele>10.653553</ele>
        <time>2020-12-03T18:50:56.928Z</time>
      </trkpt>
      <trkpt lat="52.856153" lon="7.049982">
        <ele>10.532742</ele>
        <time>2020-12-03T18:51:09.777Z</time>
      </trkpt>
      <trkpt lat="52.855363" lon="7.047819">
        <ele>10.322459</ele>
        <time>2020-12-03T18:51:31.474Z</time>
      </trkpt>
      <trkpt lat="52.854577" lon="7.045700">
        <ele>10.107076</ele>
        <time>2020-12-03T18:51:52.795Z</time>
      </trkpt>
      <trkpt lat="52.854521" lon="7.045741">
        <ele>10.104780</ele>
        <time>2020-12-03T18:51:54.022Z</time>
      </trkpt>
      <trkpt lat="52.853879" lon="7.046366">
        <ele>10.076850</ele>
        <time>2020-12-03T18:52:08.946Z</time>
      </trkpt>
      <trkpt lat="52.851861" lon="7.048331">
        <ele>10.087124</ele>
        <time>2020-12-03T18:52:56.467Z</time>
      </trkpt>
      <trkpt lat="52.851697" lon="7.048649">
        <ele>10.095560</ele>
        <time>2020-12-03T18:53:01.640Z</time>
      </trkpt>
      <trkpt lat="52.851577" lon="7.049350">
        <ele>10.116971</ele>
        <time>2020-12-03T18:53:10.678Z</time>
      </trkpt>
      <trkpt lat="52.851428" lon="7.049593">
        <ele>10.129026</ele>
        <time>2020-12-03T18:53:14.977Z</time>
      </trkpt>
      <trkpt lat="52.848267" lon="7.052969">
        <ele>10.407708</ele>
        <time>2020-12-03T18:54:32.471Z</time>
      </trkpt>
      <trkpt lat="52.847676" lon="7.053743">
        <ele>10.475679</ele>
        <time>2020-12-03T18:54:47.914Z</time>
      </trkpt>
      <trkpt lat="52.843789" lon="7.057502">
        <ele>10.621668</ele>
        <time>2020-12-03T18:56:19.887Z</time>
      </trkpt>
      <trkpt lat="52.844357" lon="7.059070">
        <ele>10.521556</ele>
        <time>2020-12-03T18:56:41.528Z</time>
      </trkpt>
      <trkpt lat="52.841679" lon="7.061744">
        <ele>10.403226</ele>
        <time>2020-12-03T18:57:44.171Z</time>
      </trkpt>
      <trkpt lat="52.837660" lon="7.065095">
        <ele>11.127995</ele>
        <time>2020-12-03T18:59:18.367Z</time>
      </trkpt>
      <trkpt lat="52.837348" lon="7.065444">
        <ele>11.220158</ele>
        <time>2020-12-03T18:59:26.474Z</time>
      </trkpt>
      <trkpt lat="52.836902" lon="7.066191">
        <ele>11.375446</ele>
        <time>2020-12-03T18:59:40.035Z</time>
      </trkpt>
      <trkpt lat="52.836587" lon="7.066596">
        <ele>11.473067</ele>
        <time>2020-12-03T18:59:48.549Z</time>
      </trkpt>
      <trkpt lat="52.836333" lon="7.066801">
        <ele>11.511164</ele>
        <time>2020-12-03T18:59:54.652Z</time>
      </trkpt>
      <trkpt lat="52.835934" lon="7.067129">
        <ele>11.522358</ele>
        <time>2020-12-03T19:00:03.804Z</time>
      </trkpt>
      <trkpt lat="52.835090" lon="7.067822">
        <ele>11.546031</ele>
        <time>2020-12-03T19:00:22.744Z</time>
      </trkpt>
      <trkpt lat="52.835050" lon="7.067857">
        <ele>11.547167</ele>
        <time>2020-12-03T19:00:23.673Z</time>
      </trkpt>
      <trkpt lat="52.834957" lon="7.067925">
        <ele>11.549722</ele>
        <time>2020-12-03T19:00:25.617Z</time>
      </trkpt>
      <trkpt lat="52.834430" lon="7.068340">
        <ele>11.496928</ele>
        <time>2020-12-03T19:00:36.981Z</time>
      </trkpt>
      <trkpt lat="52.832060" lon="7.069219">
        <ele>11.272422</ele>
        <time>2020-12-03T19:01:25.133Z</time>
      </trkpt>
      <trkpt lat="52.831974" lon="7.069322">
        <ele>11.266356</ele>
        <time>2020-12-03T19:01:27.391Z</time>
      </trkpt>
      <trkpt lat="52.832261" lon="7.070259">
        <ele>11.233971</ele>
        <time>2020-12-03T19:01:40.354Z</time>
      </trkpt>
      <trkpt lat="52.831974" lon="7.069322">
        <ele>11.271791</ele>
        <time>2020-12-03T19:01:53.361Z</time>
      </trkpt>
      <trkpt lat="52.831910" lon="7.069418">
        <ele>11.276938</ele>
        <time>2020-12-03T19:01:55.146Z</time>
      </trkpt>
      <trkpt lat="52.830356" lon="7.073004">
        <ele>11.482767</ele>
        <time>2020-12-03T19:02:49.766Z</time>
      </trkpt>
      <trkpt lat="52.830326" lon="7.073077">
        <ele>11.487490</ele>
        <time>2020-12-03T19:02:50.929Z</time>
      </trkpt>
      <trkpt lat="52.830233" lon="7.073289">
        <ele>11.503381</ele>
        <time>2020-12-03T19:02:54.306Z</time>
      </trkpt>
      <trkpt lat="52.830186" lon="7.073399">
        <ele>11.514967</ele>
        <time>2020-12-03T19:02:55.976Z</time>
      </trkpt>
      <trkpt lat="52.830139" lon="7.073506">
        <ele>11.526343</ele>
        <time>2020-12-03T19:02:57.606Z</time>
      </trkpt>
      <trkpt lat="52.830041" lon="7.073387">
        <ele>11.543642</ele>
        <time>2020-12-03T19:02:59.635Z</time>
      </trkpt>
      <trkpt lat="52.826942" lon="7.069645">
        <ele>12.006116</ele>
        <time>2020-12-03T19:03:58.320Z</time>
      </trkpt>
      <trkpt lat="52.826366" lon="7.068957">
        <ele>12.086470</ele>
        <time>2020-12-03T19:04:09.133Z</time>
      </trkpt>
      <trkpt lat="52.822811" lon="7.064703">
        <ele>12.613552</ele>
        <time>2020-12-03T19:05:16.170Z</time>
      </trkpt>
      <trkpt lat="52.822081" lon="7.063830">
        <ele>12.951236</ele>
        <time>2020-12-03T19:05:30.901Z</time>
      </trkpt>
      <trkpt lat="52.821968" lon="7.063779">
        <ele>12.995150</ele>
        <time>2020-12-03T19:05:32.877Z</time>
      </trkpt>
      <trkpt lat="52.821944" lon="7.063658">
        <ele>13.024004</ele>
        <time>2020-12-03T19:05:34.116Z</time>
      </trkpt>
      <trkpt lat="52.821969" lon="7.063585">
        <ele>13.043014</ele>
        <time>2020-12-03T19:05:35.022Z</time>
      </trkpt>
      <trkpt lat="52.821995" lon="7.063530">
        <ele>13.058835</ele>
        <time>2020-12-03T19:05:35.716Z</time>
      </trkpt>
      <trkpt lat="52.821638" lon="7.063111">
        <ele>13.228155</ele>
        <time>2020-12-03T19:05:42.962Z</time>
      </trkpt>
      <trkpt lat="52.821630" lon="7.063078">
        <ele>13.237537</ele>
        <time>2020-12-03T19:05:43.355Z</time>
      </trkpt>
      <trkpt lat="52.821565" lon="7.063086">
        <ele>13.265997</ele>
        <time>2020-12-03T19:05:44.814Z</time>
      </trkpt>
      <trkpt lat="52.821523" lon="7.063081">
        <ele>13.284384</ele>
        <time>2020-12-03T19:05:45.778Z</time>
      </trkpt>
      <trkpt lat="52.820903" lon="7.062338">
        <ele>13.618639</ele>
        <time>2020-12-03T19:06:02.826Z</time>
      </trkpt>
      <trkpt lat="52.818260" lon="7.059190">
        <ele>14.579965</ele>
        <time>2020-12-03T19:07:13.439Z</time>
      </trkpt>
      <trkpt lat="52.818023" lon="7.058913">
        <ele>14.580838</ele>
        <time>2020-12-03T19:07:19.230Z</time>
      </trkpt>
      <trkpt lat="52.817650" lon="7.058458">
        <ele>14.582231</ele>
        <time>2020-12-03T19:07:28.357Z</time>
      </trkpt>
      <trkpt lat="52.817386" lon="7.058015">
        <ele>14.583362</ele>
        <time>2020-12-03T19:07:35.607Z</time>
      </trkpt>
      <trkpt lat="52.816429" lon="7.056330">
        <ele>14.204535</ele>
        <time>2020-12-03T19:08:02.227Z</time>
      </trkpt>
      <trkpt lat="52.816251" lon="7.056048">
        <ele>14.136199</ele>
        <time>2020-12-03T19:08:07.081Z</time>
      </trkpt>
      <trkpt lat="52.816163" lon="7.055906">
        <ele>14.102114</ele>
        <time>2020-12-03T19:08:09.541Z</time>
      </trkpt>
      <trkpt lat="52.816075" lon="7.055777">
        <ele>14.063222</ele>
        <time>2020-12-03T19:08:11.770Z</time>
      </trkpt>
      <trkpt lat="52.815670" lon="7.056560">
        <ele>13.818969</ele>
        <time>2020-12-03T19:08:23.765Z</time>
      </trkpt>
      <trkpt lat="52.815228" lon="7.057371">
        <ele>13.560151</ele>
        <time>2020-12-03T19:08:36.137Z</time>
      </trkpt>
      <trkpt lat="52.814882" lon="7.058054">
        <ele>13.339033</ele>
        <time>2020-12-03T19:08:46.300Z</time>
      </trkpt>
      <trkpt lat="52.814483" lon="7.058795">
        <ele>13.027338</ele>
        <time>2020-12-03T19:08:57.313Z</time>
      </trkpt>
      <trkpt lat="52.813652" lon="7.060382">
        <ele>12.426466</ele>
        <time>2020-12-03T19:09:20.617Z</time>
      </trkpt>
      <trkpt lat="52.812776" lon="7.062057">
        <ele>12.261355</ele>
        <time>2020-12-03T19:09:46.970Z</time>
      </trkpt>
      <trkpt lat="52.811532" lon="7.064386">
        <ele>12.675848</ele>
        <time>2020-12-03T19:10:26.994Z</time>
      </trkpt>
      <trkpt lat="52.810865" lon="7.065640">
        <ele>13.123780</ele>
        <time>2020-12-03T19:10:49.537Z</time>
      </trkpt>
      <trkpt lat="52.810697" lon="7.065922">
        <ele>13.240990</ele>
        <time>2020-12-03T19:10:54.785Z</time>
      </trkpt>
      <trkpt lat="52.810715" lon="7.066228">
        <ele>13.332001</ele>
        <time>2020-12-03T19:10:58.977Z</time>
      </trkpt>
      <trkpt lat="52.810762" lon="7.068366">
        <ele>14.027277</ele>
        <time>2020-12-03T19:11:28.031Z</time>
      </trkpt>
      <trkpt lat="52.810802" lon="7.070549">
        <ele>14.710809</ele>
        <time>2020-12-03T19:11:58.106Z</time>
      </trkpt>
      <trkpt lat="52.810821" lon="7.071683">
        <ele>14.856025</ele>
        <time>2020-12-03T19:12:13.327Z</time>
      </trkpt>
      <trkpt lat="52.810830" lon="7.071756">
        <ele>14.865562</ele>
        <time>2020-12-03T19:12:14.320Z</time>
      </trkpt>
      <trkpt lat="52.811055" lon="7.071992">
        <ele>14.921981</ele>
        <time>2020-12-03T19:12:19.980Z</time>
      </trkpt>
      <trkpt lat="52.811346" lon="7.073999">
        <ele>14.817494</ele>
        <time>2020-12-03T19:12:43.969Z</time>
      </trkpt>
      <trkpt lat="52.811357" lon="7.074439">
        <ele>14.726264</ele>
        <time>2020-12-03T19:12:48.878Z</time>
      </trkpt>
      <trkpt lat="52.811362" lon="7.074842">
        <ele>14.642759</ele>
        <time>2020-12-03T19:12:53.278Z</time>
      </trkpt>
      <trkpt lat="52.811223" lon="7.074874">
        <ele>14.594660</ele>
        <time>2020-12-03T19:12:55.273Z</time>
      </trkpt>
      <trkpt lat="52.810791" lon="7.074963">
        <ele>14.445454</ele>
        <time>2020-12-03T19:13:01.149Z</time>
      </trkpt>
      <trkpt lat="52.810315" lon="7.075085">
        <ele>14.422792</ele>
        <time>2020-12-03T19:13:08.078Z</time>
      </trkpt>
      <trkpt lat="52.809159" lon="7.075614">
        <ele>14.405855</ele>
        <time>2020-12-03T19:13:26.479Z</time>
      </trkpt>
      <trkpt lat="52.809001" lon="7.075758">
        <ele>14.400441</ele>
        <time>2020-12-03T19:13:29.438Z</time>
      </trkpt>
      <trkpt lat="52.808900" lon="7.076067">
        <ele>14.355652</ele>
        <time>2020-12-03T19:13:32.510Z</time>
      </trkpt>
      <trkpt lat="52.808127" lon="7.079654">
        <ele>13.914817</ele>
        <time>2020-12-03T19:14:04.397Z</time>
      </trkpt>
      <trkpt lat="52.807351" lon="7.083354">
        <ele>13.997821</ele>
        <time>2020-12-03T19:14:39.013Z</time>
      </trkpt>
      <trkpt lat="52.806371" lon="7.087929">
        <ele>15.412681</ele>
        <time>2020-12-03T19:15:31.219Z</time>
      </trkpt>
      <trkpt lat="52.806325" lon="7.088137">
        <ele>15.429854</ele>
        <time>2020-12-03T19:15:33.254Z</time>
      </trkpt>
      <trkpt lat="52.806179" lon="7.088847">
        <ele>15.488003</ele>
        <time>2020-12-03T19:15:39.965Z</time>
      </trkpt>
      <trkpt lat="52.804659" lon="7.095977">
        <ele>13.927927</ele>
        <time>2020-12-03T19:16:41.824Z</time>
      </trkpt>
      <trkpt lat="52.804587" lon="7.096301">
        <ele>13.822973</ele>
        <time>2020-12-03T19:16:44.507Z</time>
      </trkpt>
      <trkpt lat="52.804494" lon="7.096937">
        <ele>13.624025</ele>
        <time>2020-12-03T19:16:49.721Z</time>
      </trkpt>
      <trkpt lat="52.804517" lon="7.097419">
        <ele>13.477020</ele>
        <time>2020-12-03T19:16:53.583Z</time>
      </trkpt>
      <trkpt lat="52.804652" lon="7.098894">
        <ele>13.200734</ele>
        <time>2020-12-03T19:17:05.726Z</time>
      </trkpt>
      <trkpt lat="52.805010" lon="7.102670">
        <ele>13.386262</ele>
        <time>2020-12-03T19:17:40.598Z</time>
      </trkpt>
      <trkpt lat="52.805053" lon="7.103321">
        <ele>13.501628</ele>
        <time>2020-12-03T19:17:47.212Z</time>
      </trkpt>
      <trkpt lat="52.804971" lon="7.103855">
        <ele>13.598688</ele>
        <time>2020-12-03T19:17:52.857Z</time>
      </trkpt>
      <trkpt lat="52.804724" lon="7.104644">
        <ele>13.834543</ele>
        <time>2020-12-03T19:18:02.374Z</time>
      </trkpt>
      <trkpt lat="52.804159" lon="7.106375">
        <ele>14.431536</ele>
        <time>2020-12-03T19:18:22.699Z</time>
      </trkpt>
      <trkpt lat="52.804121" lon="7.106495">
        <ele>14.472647</ele>
        <time>2020-12-03T19:18:24.030Z</time>
      </trkpt>
      <trkpt lat="52.804063" lon="7.106682">
        <ele>14.536430</ele>
        <time>2020-12-03T19:18:25.839Z</time>
      </trkpt>
      <trkpt lat="52.803982" lon="7.106927">
        <ele>14.528400</ele>
        <time>2020-12-03T19:18:28.638Z</time>
      </trkpt>
      <trkpt lat="52.803960" lon="7.107008">
        <ele>14.521019</ele>
        <time>2020-12-03T19:18:29.457Z</time>
      </trkpt>
      <trkpt lat="52.803813" lon="7.107472">
        <ele>14.477473</ele>
        <time>2020-12-03T19:18:34.214Z</time>
      </trkpt>
      <trkpt lat="52.803783" lon="7.107736">
        <ele>14.455143</ele>
        <time>2020-12-03T19:18:36.401Z</time>
      </trkpt>
      <trkpt lat="52.801574" lon="7.114803">
        <ele>13.783030</ele>
        <time>2020-12-03T19:19:44.714Z</time>
      </trkpt>
      <trkpt lat="52.801251" lon="7.115812">
        <ele>13.828681</ele>
        <time>2020-12-03T19:19:55.220Z</time>
      </trkpt>
      <trkpt lat="52.801200" lon="7.115769">
        <ele>13.832467</ele>
        <time>2020-12-03T19:19:56.362Z</time>
      </trkpt>
      <trkpt lat="52.800932" lon="7.116631">
        <ele>13.871225</ele>
        <time>2020-12-03T19:20:05.405Z</time>
      </trkpt>
      <trkpt lat="52.798653" lon="7.123955">
        <ele>14.113590</ele>
        <time>2020-12-03T19:21:20.052Z</time>
      </trkpt>
      <trkpt lat="52.798688" lon="7.123994">
        <ele>14.119187</ele>
        <time>2020-12-03T19:21:21.653Z</time>
      </trkpt>
      <trkpt lat="52.798245" lon="7.125440">
        <ele>14.363393</ele>
        <time>2020-12-03T19:21:37.082Z</time>
      </trkpt>
      <trkpt lat="52.797319" lon="7.128488">
        <ele>15.619125</ele>
        <time>2020-12-03T19:22:13.516Z</time>
      </trkpt>
      <trkpt lat="52.797187" lon="7.129140">
        <ele>15.854030</ele>
        <time>2020-12-03T19:22:21.070Z</time>
      </trkpt>
      <trkpt lat="52.796987" lon="7.130245">
        <ele>16.248095</ele>
        <time>2020-12-03T19:22:32.795Z</time>
      </trkpt>
      <trkpt lat="52.796880" lon="7.130893">
        <ele>16.329862</ele>
        <time>2020-12-03T19:22:39.351Z</time>
      </trkpt>
      <trkpt lat="52.796625" lon="7.132361">
        <ele>16.224591</ele>
        <time>2020-12-03T19:22:52.775Z</time>
      </trkpt>
      <trkpt lat="52.795958" lon="7.136183">
        <ele>15.566869</ele>
        <time>2020-12-03T19:23:25.606Z</time>
      </trkpt>
      <trkpt lat="52.795623" lon="7.137750">
        <ele>15.442835</ele>
        <time>2020-12-03T19:23:40.113Z</time>
      </trkpt>
      <trkpt lat="52.795349" lon="7.138678">
        <ele>15.372763</ele>
        <time>2020-12-03T19:23:49.357Z</time>
      </trkpt>
      <trkpt lat="52.794676" lon="7.140593">
        <ele>15.192672</ele>
        <time>2020-12-03T19:24:08.431Z</time>
      </trkpt>
      <trkpt lat="52.794654" lon="7.140782">
        <ele>15.176513</ele>
        <time>2020-12-03T19:24:10.161Z</time>
      </trkpt>
      <trkpt lat="52.794614" lon="7.140931">
        <ele>15.162827</ele>
        <time>2020-12-03T19:24:11.444Z</time>
      </trkpt>
      <trkpt lat="52.794468" lon="7.141124">
        <ele>15.136876</ele>
        <time>2020-12-03T19:24:14.222Z</time>
      </trkpt>
      <trkpt lat="52.794080" lon="7.142167">
        <ele>14.980699</ele>
        <time>2020-12-03T19:24:25.057Z</time>
      </trkpt>
      <trkpt lat="52.793978" lon="7.142436">
        <ele>14.931906</ele>
        <time>2020-12-03T19:24:27.757Z</time>
      </trkpt>
      <trkpt lat="52.793706" lon="7.143203">
        <ele>14.795265</ele>
        <time>2020-12-03T19:24:35.137Z</time>
      </trkpt>
      <trkpt lat="52.793503" lon="7.143747">
        <ele>14.697030</ele>
        <time>2020-12-03T19:24:40.424Z</time>
      </trkpt>
      <trkpt lat="52.793277" lon="7.144411">
        <ele>14.599768</ele>
        <time>2020-12-03T19:24:46.822Z</time>
      </trkpt>
      <trkpt lat="52.793159" lon="7.144820">
        <ele>14.552657</ele>
        <time>2020-12-03T19:24:50.549Z</time>
      </trkpt>
      <trkpt lat="52.793018" lon="7.145617">
        <ele>14.466328</ele>
        <time>2020-12-03T19:24:57.527Z</time>
      </trkpt>
      <trkpt lat="52.792569" lon="7.149813">
        <ele>14.488320</ele>
        <time>2020-12-03T19:25:36.180Z</time>
      </trkpt>
      <trkpt lat="52.792552" lon="7.149985">
        <ele>14.486845</ele>
        <time>2020-12-03T19:25:38.143Z</time>
      </trkpt>
      <trkpt lat="52.792526" lon="7.150207">
        <ele>14.484501</ele>
        <time>2020-12-03T19:25:40.486Z</time>
      </trkpt>
      <trkpt lat="52.792299" lon="7.152284">
        <ele>14.462627</ele>
        <time>2020-12-03T19:25:59.767Z</time>
      </trkpt>
      <trkpt lat="52.792149" lon="7.153705">
        <ele>14.152903</ele>
        <time>2020-12-03T19:26:11.247Z</time>
      </trkpt>
      <trkpt lat="52.792132" lon="7.153856">
        <ele>14.104822</ele>
        <time>2020-12-03T19:26:12.484Z</time>
      </trkpt>
      <trkpt lat="52.792032" lon="7.154766">
        <ele>13.815287</ele>
        <time>2020-12-03T19:26:19.466Z</time>
      </trkpt>
      <trkpt lat="52.791991" lon="7.155248">
        <ele>13.662914</ele>
        <time>2020-12-03T19:26:23.172Z</time>
      </trkpt>
      <trkpt lat="52.791063" lon="7.163727">
        <ele>14.003784</ele>
        <time>2020-12-03T19:27:42.987Z</time>
      </trkpt>
      <trkpt lat="52.790978" lon="7.164370">
        <ele>14.050730</ele>
        <time>2020-12-03T19:27:49.105Z</time>
      </trkpt>
      <trkpt lat="52.790946" lon="7.164584">
        <ele>14.075000</ele>
        <time>2020-12-03T19:27:51.185Z</time>
      </trkpt>
      <trkpt lat="52.790894" lon="7.164894">
        <ele>14.118006</ele>
        <time>2020-12-03T19:27:54.265Z</time>
      </trkpt>
      <trkpt lat="52.790775" lon="7.165650">
        <ele>14.222438</ele>
        <time>2020-12-03T19:28:01.794Z</time>
      </trkpt>
      <trkpt lat="52.790588" lon="7.166777">
        <ele>14.378666</ele>
        <time>2020-12-03T19:28:13.163Z</time>
      </trkpt>
      <trkpt lat="52.790492" lon="7.167283">
        <ele>14.449560</ele>
        <time>2020-12-03T19:28:18.178Z</time>
      </trkpt>
      <trkpt lat="52.790065" lon="7.169254">
        <ele>14.497472</ele>
        <time>2020-12-03T19:28:37.290Z</time>
      </trkpt>
      <trkpt lat="52.789912" lon="7.169924">
        <ele>14.512498</ele>
        <time>2020-12-03T19:28:43.727Z</time>
      </trkpt>
      <trkpt lat="52.789819" lon="7.170376">
        <ele>14.487878</ele>
        <time>2020-12-03T19:28:47.968Z</time>
      </trkpt>
      <trkpt lat="52.789445" lon="7.172597">
        <ele>14.248630</ele>
        <time>2020-12-03T19:29:07.602Z</time>
      </trkpt>
      <trkpt lat="52.789356" lon="7.173364">
        <ele>14.184040</ele>
        <time>2020-12-03T19:29:14.494Z</time>
      </trkpt>
      <trkpt lat="52.789330" lon="7.173642">
        <ele>14.166720</ele>
        <time>2020-12-03T19:29:16.850Z</time>
      </trkpt>
      <trkpt lat="52.789280" lon="7.174183">
        <ele>14.133024</ele>
        <time>2020-12-03T19:29:21.600Z</time>
      </trkpt>
      <trkpt lat="52.789238" lon="7.174696">
        <ele>14.101150</ele>
        <time>2020-12-03T19:29:26.099Z</time>
      </trkpt>
      <trkpt lat="52.788825" lon="7.177951">
        <ele>13.939790</ele>
        <time>2020-12-03T19:29:55.278Z</time>
      </trkpt>
      <trkpt lat="52.788815" lon="7.178071">
        <ele>13.934850</ele>
        <time>2020-12-03T19:29:56.296Z</time>
      </trkpt>
      <trkpt lat="52.788776" lon="7.178307">
        <ele>13.924874</ele>
        <time>2020-12-03T19:29:58.645Z</time>
      </trkpt>
      <trkpt lat="52.788595" lon="7.180476">
        <ele>14.121958</ele>
        <time>2020-12-03T19:30:18.292Z</time>
      </trkpt>
      <trkpt lat="52.788387" lon="7.183127">
        <ele>14.795169</ele>
        <time>2020-12-03T19:30:45.532Z</time>
      </trkpt>
      <trkpt lat="52.788355" lon="7.183542">
        <ele>14.948833</ele>
        <time>2020-12-03T19:30:50.228Z</time>
      </trkpt>
      <trkpt lat="52.787938" lon="7.189119">
        <ele>16.568157</ele>
        <time>2020-12-03T19:31:49.750Z</time>
      </trkpt>
      <trkpt lat="52.787868" lon="7.190218">
        <ele>16.541521</ele>
        <time>2020-12-03T19:31:58.663Z</time>
      </trkpt>
      <trkpt lat="52.787505" lon="7.194468">
        <ele>14.648620</ele>
        <time>2020-12-03T19:32:30.726Z</time>
      </trkpt>
      <trkpt lat="52.787461" lon="7.195020">
        <ele>14.483012</ele>
        <time>2020-12-03T19:32:35.118Z</time>
      </trkpt>
      <trkpt lat="52.787399" lon="7.195697">
        <ele>14.279347</ele>
        <time>2020-12-03T19:32:40.740Z</time>
      </trkpt>
      <trkpt lat="52.787356" lon="7.195717">
        <ele>14.257378</ele>
        <time>2020-12-03T19:32:41.564Z</time>
      </trkpt>
      <trkpt lat="52.787311" lon="7.195815">
        <ele>14.220778</ele>
        <time>2020-12-03T19:32:42.632Z</time>
      </trkpt>
      <trkpt lat="52.787170" lon="7.197252">
        <ele>14.112244</ele>
        <time>2020-12-03T19:32:56.018Z</time>
      </trkpt>
      <trkpt lat="52.787085" lon="7.198443">
        <ele>14.226193</ele>
        <time>2020-12-03T19:33:07.551Z</time>
      </trkpt>
      <trkpt lat="52.787065" lon="7.198706">
        <ele>14.251379</ele>
        <time>2020-12-03T19:33:10.185Z</time>
      </trkpt>
      <trkpt lat="52.787034" lon="7.199004">
        <ele>14.280110</ele>
        <time>2020-12-03T19:33:13.139Z</time>
      </trkpt>
      <trkpt lat="52.787027" lon="7.199207">
        <ele>14.299430</ele>
        <time>2020-12-03T19:33:15.140Z</time>
      </trkpt>
      <trkpt lat="52.786963" lon="7.200033">
        <ele>14.166947</ele>
        <time>2020-12-03T19:33:22.785Z</time>
      </trkpt>
      <trkpt lat="52.786890" lon="7.200964">
        <ele>13.953100</ele>
        <time>2020-12-03T19:33:30.813Z</time>
      </trkpt>
      <trkpt lat="52.786784" lon="7.202122">
        <ele>13.686316</ele>
        <time>2020-12-03T19:33:39.916Z</time>
      </trkpt>
      <trkpt lat="52.786757" lon="7.202387">
        <ele>13.612830</ele>
        <time>2020-12-03T19:33:41.868Z</time>
      </trkpt>
      <trkpt lat="52.786642" lon="7.203558">
        <ele>13.100793</ele>
        <time>2020-12-03T19:33:50.921Z</time>
      </trkpt>
      <trkpt lat="52.786648" lon="7.204590">
        <ele>12.655349</ele>
        <time>2020-12-03T19:33:58.818Z</time>
      </trkpt>
      <trkpt lat="52.787093" lon="7.207356">
        <ele>11.877304</ele>
        <time>2020-12-03T19:34:22.090Z</time>
      </trkpt>
      <trkpt lat="52.787132" lon="7.207906">
        <ele>11.755169</ele>
        <time>2020-12-03T19:34:26.752Z</time>
      </trkpt>
      <trkpt lat="52.787125" lon="7.208729">
        <ele>11.674874</ele>
        <time>2020-12-03T19:34:33.699Z</time>
      </trkpt>
      <trkpt lat="52.786981" lon="7.210674">
        <ele>11.590992</ele>
        <time>2020-12-03T19:34:50.983Z</time>
      </trkpt>
      <trkpt lat="52.786981" lon="7.211771">
        <ele>11.671839</ele>
        <time>2020-12-03T19:35:01.202Z</time>
      </trkpt>
      <trkpt lat="52.787046" lon="7.212497">
        <ele>11.784278</ele>
        <time>2020-12-03T19:35:08.302Z</time>
      </trkpt>
      <trkpt lat="52.787292" lon="7.213823">
        <ele>11.996770</ele>
        <time>2020-12-03T19:35:21.940Z</time>
      </trkpt>
      <trkpt lat="52.787613" lon="7.214928">
        <ele>12.381340</ele>
        <time>2020-12-03T19:35:33.916Z</time>
      </trkpt>
      <trkpt lat="52.788257" lon="7.216460">
        <ele>13.025413</ele>
        <time>2020-12-03T19:35:53.706Z</time>
      </trkpt>
      <trkpt lat="52.788677" lon="7.217496">
        <ele>13.471660</ele>
        <time>2020-12-03T19:36:07.358Z</time>
      </trkpt>
      <trkpt lat="52.788787" lon="7.217781">
        <ele>13.592931</ele>
        <time>2020-12-03T19:36:11.086Z</time>
      </trkpt>
      <trkpt lat="52.789191" lon="7.218758">
        <ele>14.017457</ele>
        <time>2020-12-03T19:36:23.136Z</time>
      </trkpt>
      <trkpt lat="52.789292" lon="7.218998">
        <ele>14.121064</ele>
        <time>2020-12-03T19:36:25.884Z</time>
      </trkpt>
      <trkpt lat="52.789366" lon="7.219049">
        <ele>14.120578</ele>
        <time>2020-12-03T19:36:27.307Z</time>
      </trkpt>
      <trkpt lat="52.789448" lon="7.219402">
        <ele>14.119191</ele>
        <time>2020-12-03T19:36:30.962Z</time>
      </trkpt>
      <trkpt lat="52.789672" lon="7.220330">
        <ele>14.115527</ele>
        <time>2020-12-03T19:36:40.569Z</time>
      </trkpt>
      <trkpt lat="52.789750" lon="7.220669">
        <ele>14.114197</ele>
        <time>2020-12-03T19:36:43.597Z</time>
      </trkpt>
      <trkpt lat="52.789779" lon="7.220830">
        <ele>14.113581</ele>
        <time>2020-12-03T19:36:45.096Z</time>
      </trkpt>
      <trkpt lat="52.789795" lon="7.221011">
        <ele>14.112910</ele>
        <time>2020-12-03T19:36:46.506Z</time>
      </trkpt>
      <trkpt lat="52.789800" lon="7.221228">
        <ele>14.112114</ele>
        <time>2020-12-03T19:36:48.316Z</time>
      </trkpt>
      <trkpt lat="52.789792" lon="7.221364">
        <ele>14.111612</ele>
        <time>2020-12-03T19:36:49.423Z</time>
      </trkpt>
      <trkpt lat="52.789172" lon="7.224019">
        <ele>13.402896</ele>
        <time>2020-12-03T19:37:13.162Z</time>
      </trkpt>
      <trkpt lat="52.789159" lon="7.224113">
        <ele>13.375089</ele>
        <time>2020-12-03T19:37:13.872Z</time>
      </trkpt>
      <trkpt lat="52.789152" lon="7.224249">
        <ele>13.335729</ele>
        <time>2020-12-03T19:37:14.933Z</time>
      </trkpt>
      <trkpt lat="52.789154" lon="7.224505">
        <ele>13.261900</ele>
        <time>2020-12-03T19:37:16.830Z</time>
      </trkpt>
      <trkpt lat="52.789176" lon="7.224831">
        <ele>13.091688</ele>
        <time>2020-12-03T19:37:19.258Z</time>
      </trkpt>
      <trkpt lat="52.789257" lon="7.225786">
        <ele>12.566757</ele>
        <time>2020-12-03T19:37:26.330Z</time>
      </trkpt>
      <trkpt lat="52.789242" lon="7.226133">
        <ele>12.377390</ele>
        <time>2020-12-03T19:37:28.940Z</time>
      </trkpt>
      <trkpt lat="52.789164" lon="7.226331">
        <ele>12.248760</ele>
        <time>2020-12-03T19:37:30.671Z</time>
      </trkpt>
      <trkpt lat="52.789250" lon="7.226459">
        <ele>12.144612</ele>
        <time>2020-12-03T19:37:32.116Z</time>
      </trkpt>
      <trkpt lat="52.789765" lon="7.227726">
        <ele>11.633531</ele>
        <time>2020-12-03T19:37:43.789Z</time>
      </trkpt>
      <trkpt lat="52.789842" lon="7.228055">
        <ele>11.633531</ele>
        <time>2020-12-03T19:37:46.531Z</time>
      </trkpt>
      <trkpt lat="52.789904" lon="7.228306">
        <ele>11.633531</ele>
        <time>2020-12-03T19:37:48.771Z</time>
      </trkpt>
      <trkpt lat="52.789948" lon="7.228473">
        <ele>11.633531</ele>
        <time>2020-12-03T19:37:50.173Z</time>
      </trkpt>
      <trkpt lat="52.790023" lon="7.228772">
        <ele>11.633531</ele>
        <time>2020-12-03T19:37:53.128Z</time>
      </trkpt>
      <trkpt lat="52.790086" lon="7.229015">
        <ele>11.633531</ele>
        <time>2020-12-03T19:37:55.481Z</time>
      </trkpt>
      <trkpt lat="52.790098" lon="7.229063">
        <ele>11.633531</ele>
        <time>2020-12-03T19:37:55.921Z</time>
      </trkpt>
      <trkpt lat="52.790138" lon="7.229219">
        <ele>11.633531</ele>
        <time>2020-12-03T19:37:57.529Z</time>
      </trkpt>
      <trkpt lat="52.790177" lon="7.229326">
        <ele>11.633531</ele>
        <time>2020-12-03T19:37:58.743Z</time>
      </trkpt>
      <trkpt lat="52.790193" lon="7.229371">
        <ele>11.633531</ele>
        <time>2020-12-03T19:37:59.205Z</time>
      </trkpt>
      <trkpt lat="52.790262" lon="7.229558">
        <ele>11.633531</ele>
        <time>2020-12-03T19:38:01.187Z</time>
      </trkpt>
      <trkpt lat="52.790275" lon="7.229593">
        <ele>11.633531</ele>
        <time>2020-12-03T19:38:01.538Z</time>
      </trkpt>
      <trkpt lat="52.790222" lon="7.229610">
        <ele>11.633531</ele>
        <time>2020-12-03T19:38:02.641Z</time>
      </trkpt>
      <trkpt lat="52.790201" lon="7.229621">
        <ele>11.633531</ele>
        <time>2020-12-03T19:38:03.139Z</time>
      </trkpt>
      <trkpt lat="52.789766" lon="7.229860">
        <ele>11.633531</ele>
        <time>2020-12-03T19:38:12.846Z</time>
      </trkpt>
      <trkpt lat="52.789813" lon="7.230096">
        <ele>11.633531</ele>
        <time>2020-12-03T19:38:16.025Z</time>
      </trkpt>
    </trkseg>
  </trk>
</gpx>